createdAt,value
2023-02-04T00:00:48.499Z,6.74
2023-02-04T00:03:35.240Z,6.72
2023-02-04T00:06:21.385Z,6.70
2023-02-04T00:09:08.422Z,6.61
2023-02-04T00:11:54.957Z,6.71
2023-02-04T00:14:41.098Z,6.70
2023-02-04T00:17:27.567Z,6.75
2023-02-04T00:20:14.223Z,6.69
2023-02-04T00:23:00.752Z,6.54
2023-02-04T00:25:47.259Z,6.70
2023-02-04T00:28:33.713Z,6.72
2023-02-04T00:31:20.095Z,6.66
2023-02-04T00:34:06.679Z,6.53
2023-02-04T00:36:52.985Z,6.62
2023-02-04T00:39:39.291Z,6.60
2023-02-04T00:42:25.579Z,6.56
2023-02-04T00:45:12.764Z,6.51
2023-02-04T00:47:59.158Z,6.62
2023-02-04T00:50:45.513Z,6.65
2023-02-04T00:53:32.260Z,6.50
2023-02-04T00:56:18.957Z,6.61
2023-02-04T00:59:05.456Z,6.59
2023-02-04T01:01:51.938Z,6.54
2023-02-04T01:04:38.559Z,6.53
2023-02-04T01:07:24.849Z,6.08
2023-02-04T01:10:12.790Z,6.19
2023-02-04T01:12:59.139Z,6.30
2023-02-04T01:15:46.962Z,6.46
2023-02-04T01:18:34.504Z,6.34
2023-02-04T01:21:20.667Z,6.52
2023-02-04T01:24:06.975Z,6.38
2023-02-04T01:27:13.465Z,6.53
2023-02-04T01:30:00.047Z,6.49
2023-02-04T01:32:46.784Z,6.48
2023-02-04T01:35:33.413Z,6.38
2023-02-04T01:38:19.937Z,6.44
2023-02-04T01:41:06.403Z,6.30
2023-02-04T01:43:53.343Z,6.41
2023-02-04T01:46:39.890Z,6.34
2023-02-04T01:49:26.702Z,6.25
2023-02-04T01:52:13.163Z,6.38
2023-02-04T01:54:59.350Z,6.30
2023-02-04T01:57:46.346Z,6.27
2023-02-04T02:00:33.803Z,6.26
2023-02-04T02:03:20.465Z,5.79
2023-02-04T02:06:09.624Z,6.16
2023-02-04T02:08:56.197Z,5.97
2023-02-04T02:11:43.080Z,5.96
2023-02-04T02:14:29.723Z,5.84
2023-02-04T02:17:16.992Z,5.98
2023-02-04T02:20:05.911Z,6.04
2023-02-04T02:23:10.350Z,5.97
2023-02-04T02:25:56.527Z,5.90
2023-02-04T02:28:43.707Z,5.87
2023-02-04T02:31:31.734Z,5.63
2023-02-04T02:34:18.399Z,5.91
2023-02-04T02:37:06.934Z,5.82
2023-02-04T02:39:53.303Z,5.82
2023-02-04T02:42:39.913Z,5.68
2023-02-04T02:45:29.040Z,5.77
2023-02-04T02:48:15.709Z,5.65
2023-02-04T02:51:02.129Z,5.67
2023-02-04T02:53:50.475Z,5.78
2023-02-04T02:56:36.665Z,5.70
2023-02-04T02:59:23.829Z,5.78
2023-02-04T03:02:13.777Z,5.76
2023-02-04T03:05:01.227Z,5.62
2023-02-04T03:07:50.263Z,5.64
2023-02-04T03:10:37.162Z,5.60
2023-02-04T03:13:23.747Z,5.33
2023-02-04T03:16:10.789Z,5.47
2023-02-04T03:18:56.997Z,5.51
2023-02-04T03:21:43.520Z,5.58
2023-02-04T03:24:30.389Z,5.49
2023-02-04T03:27:17.306Z,5.55
2023-02-04T03:30:04.087Z,5.37
2023-02-04T03:32:50.779Z,5.53
2023-02-04T03:35:37.202Z,5.64
2023-02-04T03:38:23.763Z,5.57
2023-02-04T03:41:09.960Z,5.53
2023-02-04T03:43:56.378Z,5.54
2023-02-04T03:46:42.609Z,5.51
2023-02-04T03:49:28.961Z,5.68
2023-02-04T03:52:15.376Z,5.56
2023-02-04T03:55:01.777Z,5.44
2023-02-04T03:57:48.121Z,5.36
2023-02-04T04:00:34.391Z,5.50
2023-02-04T04:03:20.667Z,5.72
2023-02-04T04:06:09.844Z,5.60
2023-02-04T04:08:56.556Z,5.43
2023-02-04T04:11:43.275Z,5.42
2023-02-04T04:14:29.724Z,5.41
2023-02-04T04:17:15.887Z,5.60
2023-02-04T04:20:02.257Z,5.30
2023-02-04T04:22:48.382Z,5.62
2023-02-04T04:25:34.919Z,5.77
2023-02-04T04:28:21.541Z,5.57
2023-02-04T04:31:08.060Z,5.70
2023-02-04T04:33:54.664Z,5.27
2023-02-04T04:36:40.863Z,5.58
2023-02-04T04:39:27.352Z,5.51
2023-02-04T04:42:13.710Z,5.52
2023-02-04T04:44:59.892Z,5.40
2023-02-04T04:47:46.161Z,5.63
2023-02-04T04:50:33.051Z,5.63
2023-02-04T04:53:19.462Z,5.43
2023-02-04T04:56:05.887Z,5.32
2023-02-04T04:58:52.291Z,5.49
2023-02-04T05:01:39.024Z,5.41
2023-02-04T05:04:25.234Z,5.47
2023-02-04T05:07:11.758Z,5.43
2023-02-04T05:09:58.308Z,5.56
2023-02-04T05:12:44.563Z,5.53
2023-02-04T05:15:30.707Z,5.38
2023-02-04T05:18:16.991Z,5.57
2023-02-04T05:21:03.984Z,5.51
2023-02-04T05:23:50.330Z,5.45
2023-02-04T05:26:36.952Z,5.39
2023-02-04T05:29:23.356Z,5.37
2023-02-04T05:32:09.719Z,5.37
2023-02-04T05:34:55.861Z,5.42
2023-02-04T05:37:42.593Z,5.43
2023-02-04T05:40:28.807Z,5.42
2023-02-04T05:43:15.433Z,5.51
2023-02-04T05:46:02.798Z,5.55
2023-02-04T05:48:49.035Z,5.36
2023-02-04T05:51:35.398Z,5.45
2023-02-04T05:54:21.714Z,5.37
2023-02-04T05:57:08.046Z,5.23
2023-02-04T05:59:54.235Z,5.43
2023-02-04T06:02:40.730Z,5.22
2023-02-04T06:05:26.935Z,5.18
2023-02-04T06:08:15.746Z,5.08
2023-02-04T06:11:02.363Z,5.09
2023-02-04T06:13:48.500Z,5.09
2023-02-04T06:16:35.257Z,5.06
2023-02-04T06:19:21.843Z,5.11
2023-02-04T06:22:08.206Z,5.18
2023-02-04T06:24:54.550Z,5.04
2023-02-04T06:27:40.909Z,4.92
2023-02-04T06:30:27.366Z,4.86
2023-02-04T06:33:13.682Z,4.84
2023-02-04T06:36:00.098Z,4.80
2023-02-04T06:38:46.400Z,4.98
2023-02-04T06:41:32.735Z,4.96
2023-02-04T06:44:19.209Z,5.11
2023-02-04T06:47:05.575Z,5.09
2023-02-04T06:49:51.952Z,5.10
2023-02-04T06:52:38.394Z,4.95
2023-02-04T06:55:24.666Z,4.88
2023-02-04T06:58:10.926Z,5.14
2023-02-04T07:00:57.129Z,5.02
2023-02-04T07:03:43.553Z,5.04
2023-02-04T07:06:30.075Z,5.05
2023-02-04T07:09:16.747Z,5.25
2023-02-04T07:12:03.513Z,5.07
2023-02-04T07:14:50.021Z,5.23
2023-02-04T07:17:36.384Z,5.17
2023-02-04T07:20:22.873Z,5.08
2023-02-04T07:23:09.196Z,4.96
2023-02-04T07:25:59.451Z,5.37
2023-02-04T07:28:45.675Z,5.05
2023-02-04T07:31:32.018Z,5.05
2023-02-04T07:34:18.936Z,5.19
2023-02-04T07:37:05.511Z,5.25
2023-02-04T07:39:51.745Z,5.00
2023-02-04T07:42:38.183Z,5.15
2023-02-04T07:45:30.726Z,5.19
2023-02-04T07:48:17.018Z,5.18
2023-02-04T07:51:03.609Z,5.21
2023-02-04T07:53:49.794Z,5.41
2023-02-04T07:56:36.055Z,5.24
2023-02-04T07:59:22.291Z,5.33
2023-02-04T08:02:09.810Z,5.40
2023-02-04T08:04:56.318Z,5.39
2023-02-04T08:07:42.918Z,5.57
2023-02-04T08:10:29.184Z,5.62
2023-02-04T08:13:15.574Z,5.59
2023-02-04T08:16:01.947Z,5.71
2023-02-04T08:18:48.116Z,5.71
2023-02-04T08:21:34.630Z,5.66
2023-02-04T08:24:20.840Z,5.90
2023-02-04T08:27:07.299Z,5.60
2023-02-04T08:29:55.191Z,5.56
2023-02-04T08:32:41.526Z,5.87
2023-02-04T08:35:27.759Z,5.99
2023-02-04T08:38:13.923Z,6.02
2023-02-04T08:41:00.642Z,6.18
2023-02-04T08:43:47.024Z,5.91
2023-02-04T08:46:33.500Z,5.95
2023-02-04T08:49:20.175Z,5.81
2023-02-04T08:52:08.145Z,5.69
2023-02-04T08:54:54.413Z,5.54
2023-02-04T08:57:40.934Z,5.31
2023-02-04T09:00:27.683Z,5.57
2023-02-04T09:03:14.497Z,5.55
2023-02-04T09:06:01.164Z,5.62
2023-02-04T09:08:47.752Z,5.68
2023-02-04T09:11:34.043Z,5.72
2023-02-04T09:14:20.354Z,5.92
2023-02-04T09:17:07.560Z,6.14
2023-02-04T09:19:53.841Z,6.42
2023-02-04T09:22:40.025Z,6.45
2023-02-04T09:25:26.297Z,6.74
2023-02-04T09:28:14.637Z,7.17
2023-02-04T09:31:02.582Z,7.30
2023-02-04T09:33:50.391Z,7.35
2023-02-04T09:36:38.491Z,7.41
2023-02-04T09:39:24.963Z,7.49
2023-02-04T09:42:14.797Z,7.55
2023-02-04T09:45:03.148Z,7.39
2023-02-04T09:47:51.530Z,7.42
2023-02-04T09:50:37.870Z,7.25
2023-02-04T09:53:24.878Z,7.35
2023-02-04T09:56:11.636Z,7.53
2023-02-04T09:58:58.233Z,7.13
2023-02-04T10:01:44.687Z,7.09
2023-02-04T10:04:31.273Z,7.40
2023-02-04T10:07:22.092Z,7.42
2023-02-04T10:10:17.290Z,7.45
2023-02-04T10:13:03.872Z,7.45
2023-02-04T10:15:51.096Z,7.57
2023-02-04T10:18:38.053Z,7.36
2023-02-04T10:21:29.502Z,7.37
2023-02-04T10:24:28.065Z,6.92
2023-02-04T10:27:18.030Z,6.85
2023-02-04T10:30:05.272Z,7.00
2023-02-04T10:32:52.099Z,6.91
2023-02-04T10:35:50.266Z,6.88
2023-02-04T10:38:36.446Z,6.85
2023-02-04T10:41:22.880Z,6.98
2023-02-04T10:44:11.678Z,6.98
2023-02-04T10:47:03.337Z,6.80
2023-02-04T10:50:00.344Z,6.89
2023-02-04T10:52:51.151Z,6.74
2023-02-04T10:55:37.648Z,6.90
2023-02-04T10:58:28.967Z,6.93
2023-02-04T11:01:16.690Z,7.31
2023-02-04T11:04:02.943Z,7.63
2023-02-04T11:06:50.704Z,7.84
2023-02-04T11:09:37.105Z,8.02
2023-02-04T11:12:46.048Z,8.04
2023-02-04T11:15:50.378Z,7.79
2023-02-04T11:18:50.270Z,7.94
2023-02-04T11:21:36.563Z,8.19
2023-02-04T11:24:25.785Z,7.93
2023-02-04T11:27:40.079Z,8.20
2023-02-04T11:30:33.438Z,8.37
2023-02-04T11:33:24.359Z,8.33
2023-02-04T11:36:13.175Z,8.11
2023-02-04T11:39:08.481Z,7.92
2023-02-04T11:41:55.179Z,8.21
2023-02-04T11:44:41.819Z,8.41
2023-02-04T11:47:34.985Z,8.64
2023-02-04T11:50:33.994Z,8.71
2023-02-04T11:53:24.351Z,8.70
2023-02-04T11:56:21.580Z,8.71
2023-02-04T11:59:11.748Z,8.69
2023-02-04T12:02:06.537Z,8.75
2023-02-04T12:04:57.413Z,8.69
2023-02-04T12:07:45.070Z,8.43
2023-02-04T12:10:34.360Z,8.10
2023-02-04T12:13:24.251Z,8.25
2023-02-04T12:16:10.827Z,8.08
2023-02-04T12:18:57.428Z,8.42
2023-02-04T12:21:44.032Z,8.57
2023-02-04T12:24:30.457Z,8.40
2023-02-04T12:27:16.931Z,8.37
2023-02-04T12:30:03.661Z,8.34
2023-02-04T12:32:50.141Z,8.12
2023-02-04T12:35:36.593Z,8.23
2023-02-04T12:38:22.847Z,8.34
2023-02-04T12:41:09.444Z,8.00
2023-02-04T12:43:56.100Z,8.04
2023-02-04T12:46:42.529Z,8.00
2023-02-04T12:49:28.880Z,7.72
2023-02-04T12:52:15.134Z,7.82
2023-02-04T12:55:01.435Z,7.87
2023-02-04T12:57:47.796Z,7.98
2023-02-04T13:00:34.078Z,7.91
2023-02-04T13:03:20.646Z,8.36
2023-02-04T13:06:07.088Z,8.39
2023-02-04T13:08:53.205Z,8.97
2023-02-04T13:11:39.662Z,9.08
2023-02-04T13:14:26.143Z,9.26
2023-02-04T13:17:12.578Z,9.90
2023-02-04T13:19:58.900Z,10.40
2023-02-04T13:22:45.363Z,10.69
2023-02-04T13:25:31.989Z,11.00
2023-02-04T13:28:18.634Z,10.74
2023-02-04T13:31:05.341Z,9.25
2023-02-04T13:33:51.861Z,8.78
2023-02-04T13:36:38.780Z,8.69
2023-02-04T13:39:25.295Z,7.94
2023-02-04T13:42:11.484Z,7.72
2023-02-04T13:44:57.755Z,7.53
2023-02-04T13:47:44.804Z,7.48
2023-02-04T13:50:31.168Z,7.10
2023-02-04T13:53:17.735Z,7.18
2023-02-04T13:56:04.419Z,6.77
2023-02-04T13:58:50.657Z,6.73
2023-02-04T14:01:36.985Z,6.70
2023-02-04T14:04:23.139Z,6.85
2023-02-04T14:07:10.437Z,6.74
2023-02-04T14:09:56.709Z,6.73
2023-02-04T14:12:42.872Z,6.62
2023-02-04T14:15:29.380Z,6.54
2023-02-04T14:18:18.307Z,6.35
2023-02-04T14:21:04.884Z,6.27
2023-02-04T14:23:51.000Z,6.36
2023-02-04T14:26:37.372Z,6.40
2023-02-04T14:29:23.623Z,6.19
2023-02-04T14:32:09.930Z,6.05
2023-02-04T14:34:56.425Z,6.09
2023-02-04T14:37:43.228Z,5.93
2023-02-04T14:40:29.856Z,6.20
2023-02-04T14:43:16.469Z,6.52
2023-02-04T14:46:05.553Z,6.45
2023-02-04T14:48:52.535Z,6.69
2023-02-04T14:51:38.735Z,6.80
2023-02-04T14:54:25.147Z,7.11
2023-02-04T14:57:11.957Z,7.02
2023-02-04T14:59:58.417Z,7.39
2023-02-04T15:02:45.122Z,7.07
2023-02-04T15:05:31.737Z,7.16
2023-02-04T15:08:17.979Z,7.08
2023-02-04T15:11:04.438Z,7.35
2023-02-04T15:13:50.573Z,7.27
2023-02-04T15:16:36.965Z,7.00
2023-02-04T15:19:25.023Z,7.16
2023-02-04T15:22:12.626Z,7.06
2023-02-04T15:24:59.176Z,6.84
2023-02-04T15:27:45.753Z,6.86
2023-02-04T15:30:32.591Z,6.81
2023-02-04T15:33:19.404Z,6.75
2023-02-04T15:36:06.026Z,6.69
2023-02-04T15:38:52.527Z,6.47
2023-02-04T15:41:39.074Z,6.72
2023-02-04T15:44:26.627Z,6.63
2023-02-04T15:47:13.135Z,6.68
2023-02-04T15:49:59.503Z,6.51
2023-02-04T15:52:46.341Z,6.70
2023-02-04T15:55:32.608Z,6.61
2023-02-04T15:58:18.893Z,6.41
2023-02-04T16:01:05.940Z,6.35
2023-02-04T16:03:56.236Z,6.28
2023-02-04T16:06:50.149Z,5.98
2023-02-04T16:09:40.009Z,5.76
2023-02-04T16:12:26.195Z,5.73
2023-02-04T16:15:12.559Z,5.66
2023-02-04T16:17:58.772Z,5.46
2023-02-04T16:20:45.236Z,5.46
2023-02-04T16:23:31.473Z,5.30
2023-02-04T16:26:17.606Z,4.88
2023-02-04T16:29:03.782Z,5.14
2023-02-04T16:31:50.298Z,4.92
2023-02-04T16:34:36.718Z,4.86
2023-02-04T16:37:23.244Z,5.06
2023-02-04T16:40:11.316Z,4.87
2023-02-04T16:42:57.996Z,4.66
2023-02-04T16:45:44.185Z,4.70
2023-02-04T16:48:30.653Z,4.79
2023-02-04T16:51:17.920Z,4.62
2023-02-04T16:54:04.579Z,4.53
2023-02-04T16:56:52.067Z,4.21
2023-02-04T16:59:38.320Z,4.29
2023-02-04T17:02:24.555Z,4.26
2023-02-04T17:05:10.931Z,4.10
2023-02-04T17:07:58.498Z,4.15
2023-02-04T17:11:03.411Z,3.94
2023-02-04T17:13:49.582Z,3.82
2023-02-04T17:16:36.819Z,3.65
2023-02-04T17:19:23.073Z,3.49
2023-02-04T17:22:09.346Z,3.27
2023-02-04T17:24:55.516Z,3.08
2023-02-04T17:27:41.978Z,3.08
2023-02-04T17:30:29.248Z,3.01
2023-02-04T17:33:15.528Z,2.75
2023-02-04T17:36:02.629Z,2.71
2023-02-04T17:38:50.059Z,2.44
2023-02-04T17:41:36.564Z,2.29
2023-02-04T17:44:26.711Z,2.23
2023-02-04T17:47:14.027Z,2.23
2023-02-04T17:50:00.614Z,2.02
2023-02-04T17:52:47.118Z,1.89
2023-02-04T17:55:35.117Z,1.97
2023-02-04T17:58:24.113Z,1.64
2023-02-04T18:01:14.621Z,1.67
2023-02-04T18:04:01.311Z,1.78
2023-02-04T18:06:51.127Z,1.40
2023-02-04T18:09:37.454Z,1.42
2023-02-04T18:12:23.777Z,1.40
2023-02-04T18:15:23.468Z,1.24
2023-02-04T18:18:35.881Z,1.32
2023-02-04T18:21:28.162Z,1.28
2023-02-04T18:24:21.462Z,1.32
2023-02-04T18:27:20.751Z,1.44
2023-02-04T18:30:27.789Z,1.33
2023-02-04T18:33:19.513Z,1.67
2023-02-04T18:36:06.157Z,1.80
2023-02-04T18:38:52.955Z,1.76
2023-02-04T18:41:41.349Z,1.78
2023-02-04T18:44:40.092Z,1.78
2023-02-04T18:47:35.718Z,1.87
2023-02-04T18:50:32.983Z,2.01
2023-02-04T18:53:27.782Z,1.94
2023-02-04T18:56:15.996Z,1.89
2023-02-04T18:59:10.744Z,2.02
2023-02-04T19:01:56.998Z,1.84
2023-02-04T19:04:44.418Z,1.75
2023-02-04T19:07:34.811Z,1.92
2023-02-04T19:10:28.551Z,1.86
2023-02-04T19:13:29.048Z,1.66
2023-02-04T19:16:26.198Z,1.50
2023-02-04T19:19:38.621Z,1.36
2023-02-04T19:22:49.543Z,1.32
2023-02-04T19:25:46.416Z,1.34
2023-02-04T19:28:37.254Z,1.08
2023-02-04T19:31:34.680Z,1.42
2023-02-04T19:34:25.159Z,1.43
2023-02-04T19:37:37.254Z,1.25
2023-02-04T19:40:37.223Z,1.62
2023-02-04T19:43:37.223Z,1.71
2023-02-04T19:46:25.148Z,1.84
2023-02-04T19:49:24.290Z,1.62
2023-02-04T19:52:32.436Z,1.91
2023-02-04T19:55:18.773Z,1.81
2023-02-04T19:58:05.155Z,1.79
2023-02-04T20:01:01.506Z,1.76
2023-02-04T20:03:49.214Z,1.85
2023-02-04T20:06:36.073Z,1.87
2023-02-04T20:09:29.106Z,2.31
2023-02-04T20:12:17.785Z,2.08
2023-02-04T20:15:18.956Z,2.05
2023-02-04T20:18:20.043Z,1.77
2023-02-04T20:21:11.190Z,1.51
2023-02-04T20:23:57.547Z,1.66
2023-02-04T20:26:44.890Z,1.50
2023-02-04T20:29:34.527Z,1.49
2023-02-04T20:32:30.129Z,1.15
2023-02-04T20:35:16.225Z,1.27
2023-02-04T20:38:13.288Z,0.88
2023-02-04T20:40:59.580Z,0.88
2023-02-04T20:43:46.039Z,1.27
2023-02-04T20:46:32.747Z,1.13
2023-02-04T20:49:24.304Z,0.91
2023-02-04T20:52:47.491Z,1.00
2023-02-04T20:55:34.740Z,0.87
2023-02-04T20:58:27.556Z,1.01
2023-02-04T21:01:33.803Z,1.13
2023-02-04T21:04:25.857Z,1.14
2023-02-04T21:07:23.174Z,0.97
2023-02-04T21:10:11.245Z,1.23
2023-02-04T21:13:01.154Z,1.05
2023-02-04T21:15:47.860Z,1.43
2023-02-04T21:18:35.099Z,1.24
2023-02-04T21:21:24.389Z,1.21
2023-02-04T21:24:10.864Z,0.77
2023-02-04T21:26:57.447Z,0.84
2023-02-04T21:29:43.936Z,1.02
2023-02-04T21:32:30.353Z,1.37
2023-02-04T21:35:24.304Z,1.28
2023-02-04T21:38:11.157Z,1.39
2023-02-04T21:40:57.469Z,0.96
2023-02-04T21:43:43.938Z,1.20
2023-02-04T21:46:30.593Z,1.38
2023-02-04T21:49:17.181Z,1.37
2023-02-04T21:52:03.482Z,1.31
2023-02-04T21:54:49.756Z,1.60
2023-02-04T21:57:36.367Z,1.38
2023-02-04T22:00:23.826Z,1.47
2023-02-04T22:03:15.506Z,1.53
2023-02-04T22:06:01.857Z,1.69
2023-02-04T22:08:49.532Z,1.54
2023-02-04T22:11:35.894Z,1.68
2023-02-04T22:14:40.973Z,1.38
2023-02-04T22:17:27.604Z,1.44
2023-02-04T22:20:17.477Z,1.52
2023-02-04T22:23:04.007Z,1.17
2023-02-04T22:25:50.527Z,1.24
2023-02-04T22:28:37.055Z,1.12
2023-02-04T22:31:23.552Z,1.18
2023-02-04T22:34:10.054Z,1.12
2023-02-04T22:36:57.038Z,0.96
2023-02-04T22:39:43.504Z,1.19
2023-02-04T22:42:29.766Z,1.01
2023-02-04T22:45:16.198Z,1.26
2023-02-04T22:48:02.828Z,1.21
2023-02-04T22:50:49.387Z,1.29
2023-02-04T22:53:35.827Z,1.25
2023-02-04T22:56:22.177Z,1.27
2023-02-04T22:59:11.593Z,1.20
2023-02-04T23:01:58.249Z,1.31
2023-02-04T23:04:44.852Z,1.36
2023-02-04T23:07:31.325Z,1.39
2023-02-04T23:10:17.979Z,1.16
2023-02-04T23:13:04.246Z,1.58
2023-02-04T23:15:51.042Z,1.50
2023-02-04T23:18:37.387Z,1.35
2023-02-04T23:21:24.313Z,1.52
2023-02-04T23:24:10.776Z,1.69
2023-02-04T23:27:00.007Z,1.82
2023-02-04T23:29:46.380Z,1.31
2023-02-04T23:32:33.080Z,1.63
2023-02-04T23:35:19.453Z,1.88
2023-02-04T23:38:06.132Z,1.92
2023-02-04T23:40:52.423Z,1.95
2023-02-04T23:43:38.764Z,1.99
2023-02-04T23:46:25.379Z,2.00
2023-02-04T23:49:11.603Z,1.82
2023-02-04T23:51:57.790Z,1.81
2023-02-04T23:54:44.297Z,1.57
2023-02-04T23:57:30.682Z,1.68
